sensor_id;sensor_type;location;lat;lon;timestamp;P1;durP1;ratioP1;P2;durP2;ratioP2
19396;SDS011;9834;48.076;11.878;2022-10-16T00:01:04;1.43;;;1.33;;
19396;SDS011;9834;48.076;11.878;2022-10-16T00:03:32;1.60;;;1.17;;
19396;SDS011;9834;48.076;11.878;2022-10-16T00:06:00;1.40;;;1.07;;
19396;SDS011;9834;48.076;11.878;2022-10-16T00:08:29;1.93;;;1.20;;
19396;SDS011;9834;48.076;11.878;2022-10-16T00:11:00;1.90;;;1.33;;
19396;SDS011;9834;48.076;11.878;2022-10-16T00:13:28;1.20;;;1.10;;
19396;SDS011;9834;48.076;11.878;2022-10-16T00:15:55;1.60;;;1.23;;
19396;SDS011;9834;48.076;11.878;2022-10-16T00:18:23;1.30;;;1.20;;
19396;SDS011;9834;48.076;11.878;2022-10-16T00:20:51;1.70;;;1.60;;
19396;SDS011;9834;48.076;11.878;2022-10-16T00:23:19;1.37;;;1.10;;
19396;SDS011;9834;48.076;11.878;2022-10-16T00:25:55;1.40;;;1.30;;
19396;SDS011;9834;48.076;11.878;2022-10-16T00:28:23;2.50;;;1.13;;
19396;SDS011;9834;48.076;11.878;2022-10-16T00:30:50;1.27;;;1.00;;
19396;SDS011;9834;48.076;11.878;2022-10-16T00:33:17;0.87;;;0.87;;
19396;SDS011;9834;48.076;11.878;2022-10-16T00:35:44;1.87;;;1.20;;
19396;SDS011;9834;48.076;11.878;2022-10-16T00:38:11;1.57;;;1.30;;
19396;SDS011;9834;48.076;11.878;2022-10-16T00:40:39;2.27;;;1.23;;
19396;SDS011;9834;48.076;11.878;2022-10-16T00:43:10;1.17;;;1.13;;
19396;SDS011;9834;48.076;11.878;2022-10-16T00:45:39;2.27;;;2.07;;
19396;SDS011;9834;48.076;11.878;2022-10-16T00:48:07;1.50;;;1.33;;
19396;SDS011;9834;48.076;11.878;2022-10-16T00:50:40;1.87;;;1.33;;
19396;SDS011;9834;48.076;11.878;2022-10-16T00:53:09;2.73;;;1.50;;
19396;SDS011;9834;48.076;11.878;2022-10-16T00:55:37;1.53;;;1.00;;
19396;SDS011;9834;48.076;11.878;2022-10-16T00:58:05;1.23;;;1.13;;
19396;SDS011;9834;48.076;11.878;2022-10-16T01:00:33;1.80;;;1.23;;
19396;SDS011;9834;48.076;11.878;2022-10-16T01:03:01;1.40;;;1.30;;
19396;SDS011;9834;48.076;11.878;2022-10-16T01:05:31;1.63;;;1.30;;
19396;SDS011;9834;48.076;11.878;2022-10-16T01:08:04;1.53;;;1.43;;
19396;SDS011;9834;48.076;11.878;2022-10-16T01:10:39;0.73;;;0.73;;
19396;SDS011;9834;48.076;11.878;2022-10-16T01:13:11;1.27;;;1.07;;
19396;SDS011;9834;48.076;11.878;2022-10-16T01:15:45;1.37;;;1.27;;
19396;SDS011;9834;48.076;11.878;2022-10-16T01:18:16;1.03;;;0.80;;
19396;SDS011;9834;48.076;11.878;2022-10-16T01:20:50;2.23;;;1.33;;
19396;SDS011;9834;48.076;11.878;2022-10-16T01:23:23;2.30;;;1.50;;
19396;SDS011;9834;48.076;11.878;2022-10-16T01:26:04;1.60;;;1.50;;
19396;SDS011;9834;48.076;11.878;2022-10-16T01:28:43;1.47;;;1.37;;
19396;SDS011;9834;48.076;11.878;2022-10-16T01:31:18;1.80;;;1.67;;
19396;SDS011;9834;48.076;11.878;2022-10-16T01:33:47;1.73;;;1.20;;
19396;SDS011;9834;48.076;11.878;2022-10-16T01:36:21;1.70;;;1.53;;
19396;SDS011;9834;48.076;11.878;2022-10-16T01:38:53;1.87;;;1.23;;
19396;SDS011;9834;48.076;11.878;2022-10-16T01:41:24;2.30;;;1.50;;
19396;SDS011;9834;48.076;11.878;2022-10-16T01:43:56;1.33;;;1.30;;
19396;SDS011;9834;48.076;11.878;2022-10-16T01:46:29;2.97;;;1.93;;
19396;SDS011;9834;48.076;11.878;2022-10-16T01:49:00;2.00;;;1.80;;
19396;SDS011;9834;48.076;11.878;2022-10-16T01:51:29;2.57;;;1.80;;
19396;SDS011;9834;48.076;11.878;2022-10-16T01:53:57;1.67;;;1.53;;
19396;SDS011;9834;48.076;11.878;2022-10-16T01:56:27;1.43;;;1.33;;
19396;SDS011;9834;48.076;11.878;2022-10-16T01:58:57;1.90;;;1.80;;
19396;SDS011;9834;48.076;11.878;2022-10-16T02:01:29;3.33;;;2.13;;
19396;SDS011;9834;48.076;11.878;2022-10-16T02:04:01;2.13;;;1.97;;
19396;SDS011;9834;48.076;11.878;2022-10-16T02:06:34;5.23;;;2.50;;
19396;SDS011;9834;48.076;11.878;2022-10-16T02:09:01;1.70;;;1.60;;
19396;SDS011;9834;48.076;11.878;2022-10-16T02:11:28;1.73;;;1.63;;
19396;SDS011;9834;48.076;11.878;2022-10-16T02:13:57;2.50;;;1.80;;
19396;SDS011;9834;48.076;11.878;2022-10-16T02:16:32;1.67;;;1.57;;
19396;SDS011;9834;48.076;11.878;2022-10-16T02:19:00;3.03;;;2.00;;
19396;SDS011;9834;48.076;11.878;2022-10-16T02:21:28;2.50;;;2.00;;
19396;SDS011;9834;48.076;11.878;2022-10-16T02:24:02;1.57;;;1.47;;
19396;SDS011;9834;48.076;11.878;2022-10-16T02:26:35;1.50;;;1.40;;
19396;SDS011;9834;48.076;11.878;2022-10-16T02:29:08;3.17;;;1.73;;
19396;SDS011;9834;48.076;11.878;2022-10-16T02:31:42;1.70;;;1.20;;
19396;SDS011;9834;48.076;11.878;2022-10-16T02:34:12;4.70;;;1.77;;
19396;SDS011;9834;48.076;11.878;2022-10-16T02:36:42;1.90;;;1.47;;
19396;SDS011;9834;48.076;11.878;2022-10-16T02:39:12;2.10;;;1.70;;
19396;SDS011;9834;48.076;11.878;2022-10-16T02:41:41;5.07;;;1.43;;
19396;SDS011;9834;48.076;11.878;2022-10-16T02:44:10;2.73;;;1.30;;
19396;SDS011;9834;48.076;11.878;2022-10-16T02:46:37;1.10;;;1.10;;
19396;SDS011;9834;48.076;11.878;2022-10-16T02:49:04;2.13;;;1.63;;
19396;SDS011;9834;48.076;11.878;2022-10-16T02:51:31;3.57;;;1.43;;
19396;SDS011;9834;48.076;11.878;2022-10-16T02:53:59;1.50;;;1.40;;
19396;SDS011;9834;48.076;11.878;2022-10-16T02:56:27;1.10;;;1.10;;
19396;SDS011;9834;48.076;11.878;2022-10-16T02:58:55;3.97;;;1.87;;
19396;SDS011;9834;48.076;11.878;2022-10-16T03:01:23;1.67;;;1.43;;
19396;SDS011;9834;48.076;11.878;2022-10-16T03:03:50;6.73;;;1.30;;
19396;SDS011;9834;48.076;11.878;2022-10-16T03:06:17;2.00;;;1.50;;
19396;SDS011;9834;48.076;11.878;2022-10-16T03:08:44;3.57;;;1.53;;
19396;SDS011;9834;48.076;11.878;2022-10-16T03:11:11;1.33;;;1.23;;
19396;SDS011;9834;48.076;11.878;2022-10-16T03:13:38;1.70;;;1.60;;
19396;SDS011;9834;48.076;11.878;2022-10-16T03:16:06;1.50;;;1.40;;
19396;SDS011;9834;48.076;11.878;2022-10-16T03:18:34;2.30;;;1.57;;
19396;SDS011;9834;48.076;11.878;2022-10-16T03:21:01;3.83;;;1.77;;
19396;SDS011;9834;48.076;11.878;2022-10-16T03:23:29;1.63;;;1.50;;
19396;SDS011;9834;48.076;11.878;2022-10-16T03:25:56;3.53;;;1.97;;
19396;SDS011;9834;48.076;11.878;2022-10-16T03:28:23;1.93;;;1.50;;
19396;SDS011;9834;48.076;11.878;2022-10-16T03:30:50;1.53;;;1.37;;
19396;SDS011;9834;48.076;11.878;2022-10-16T03:33:16;2.80;;;1.47;;
19396;SDS011;9834;48.076;11.878;2022-10-16T03:35:50;1.70;;;1.37;;
19396;SDS011;9834;48.076;11.878;2022-10-16T03:38:18;1.70;;;1.60;;
19396;SDS011;9834;48.076;11.878;2022-10-16T03:40:46;1.73;;;1.47;;
19396;SDS011;9834;48.076;11.878;2022-10-16T03:43:13;1.40;;;1.30;;
19396;SDS011;9834;48.076;11.878;2022-10-16T03:45:40;1.43;;;1.33;;
19396;SDS011;9834;48.076;11.878;2022-10-16T03:48:07;2.43;;;1.50;;
19396;SDS011;9834;48.076;11.878;2022-10-16T03:50:34;1.53;;;1.43;;
19396;SDS011;9834;48.076;11.878;2022-10-16T03:53:02;1.20;;;1.07;;
19396;SDS011;9834;48.076;11.878;2022-10-16T03:55:30;1.70;;;1.40;;
19396;SDS011;9834;48.076;11.878;2022-10-16T03:57:57;1.40;;;1.30;;
19396;SDS011;9834;48.076;11.878;2022-10-16T04:00:24;1.27;;;1.17;;
19396;SDS011;9834;48.076;11.878;2022-10-16T04:02:51;1.37;;;1.27;;
19396;SDS011;9834;48.076;11.878;2022-10-16T04:05:18;1.87;;;1.60;;
19396;SDS011;9834;48.076;11.878;2022-10-16T04:07:47;1.63;;;1.17;;
19396;SDS011;9834;48.076;11.878;2022-10-16T04:10:15;2.03;;;1.70;;
19396;SDS011;9834;48.076;11.878;2022-10-16T04:12:42;1.30;;;1.23;;
19396;SDS011;9834;48.076;11.878;2022-10-16T04:15:12;1.20;;;1.10;;
19396;SDS011;9834;48.076;11.878;2022-10-16T04:17:39;1.17;;;0.93;;
19396;SDS011;9834;48.076;11.878;2022-10-16T04:20:06;2.10;;;1.87;;
19396;SDS011;9834;48.076;11.878;2022-10-16T04:22:34;2.50;;;1.67;;
19396;SDS011;9834;48.076;11.878;2022-10-16T04:25:01;1.13;;;1.13;;
19396;SDS011;9834;48.076;11.878;2022-10-16T04:27:30;0.93;;;0.93;;
19396;SDS011;9834;48.076;11.878;2022-10-16T04:29:57;1.37;;;1.27;;
19396;SDS011;9834;48.076;11.878;2022-10-16T04:32:24;4.63;;;1.40;;
19396;SDS011;9834;48.076;11.878;2022-10-16T04:34:51;1.63;;;1.50;;
19396;SDS011;9834;48.076;11.878;2022-10-16T04:37:19;3.87;;;1.57;;
19396;SDS011;9834;48.076;11.878;2022-10-16T04:39:49;1.53;;;1.43;;
19396;SDS011;9834;48.076;11.878;2022-10-16T04:42:18;1.93;;;1.23;;
19396;SDS011;9834;48.076;11.878;2022-10-16T04:44:46;1.67;;;1.37;;
19396;SDS011;9834;48.076;11.878;2022-10-16T04:47:13;1.87;;;1.60;;
19396;SDS011;9834;48.076;11.878;2022-10-16T04:49:40;1.80;;;1.70;;
19396;SDS011;9834;48.076;11.878;2022-10-16T04:52:07;2.43;;;2.00;;
19396;SDS011;9834;48.076;11.878;2022-10-16T04:54:34;1.87;;;1.67;;
19396;SDS011;9834;48.076;11.878;2022-10-16T04:57:01;1.63;;;1.53;;
19396;SDS011;9834;48.076;11.878;2022-10-16T04:59:29;2.60;;;2.00;;
19396;SDS011;9834;48.076;11.878;2022-10-16T05:01:58;1.40;;;1.30;;
19396;SDS011;9834;48.076;11.878;2022-10-16T05:04:25;1.67;;;1.57;;
19396;SDS011;9834;48.076;11.878;2022-10-16T05:06:52;1.93;;;1.63;;
19396;SDS011;9834;48.076;11.878;2022-10-16T05:09:19;1.60;;;1.47;;
19396;SDS011;9834;48.076;11.878;2022-10-16T05:11:46;5.23;;;1.87;;
19396;SDS011;9834;48.076;11.878;2022-10-16T05:14:16;3.03;;;2.10;;
19396;SDS011;9834;48.076;11.878;2022-10-16T05:16:43;2.00;;;1.90;;
19396;SDS011;9834;48.076;11.878;2022-10-16T05:19:14;3.43;;;1.70;;
19396;SDS011;9834;48.076;11.878;2022-10-16T05:21:41;1.67;;;1.57;;
19396;SDS011;9834;48.076;11.878;2022-10-16T05:24:08;2.13;;;1.83;;
19396;SDS011;9834;48.076;11.878;2022-10-16T05:26:35;2.13;;;1.43;;
19396;SDS011;9834;48.076;11.878;2022-10-16T05:29:02;5.70;;;1.80;;
19396;SDS011;9834;48.076;11.878;2022-10-16T05:31:30;3.70;;;1.67;;
19396;SDS011;9834;48.076;11.878;2022-10-16T05:34:00;3.57;;;1.50;;
19396;SDS011;9834;48.076;11.878;2022-10-16T05:36:29;1.97;;;1.87;;
19396;SDS011;9834;48.076;11.878;2022-10-16T05:38:56;2.53;;;2.33;;
19396;SDS011;9834;48.076;11.878;2022-10-16T05:41:23;2.10;;;1.77;;
19396;SDS011;9834;48.076;11.878;2022-10-16T05:43:51;2.93;;;2.53;;
19396;SDS011;9834;48.076;11.878;2022-10-16T05:46:18;2.37;;;1.90;;
19396;SDS011;9834;48.076;11.878;2022-10-16T05:48:46;1.90;;;1.80;;
19396;SDS011;9834;48.076;11.878;2022-10-16T05:51:13;1.83;;;1.47;;
19396;SDS011;9834;48.076;11.878;2022-10-16T05:53:42;1.67;;;1.57;;
19396;SDS011;9834;48.076;11.878;2022-10-16T05:56:10;2.40;;;1.97;;
19396;SDS011;9834;48.076;11.878;2022-10-16T05:58:38;2.40;;;1.90;;
19396;SDS011;9834;48.076;11.878;2022-10-16T06:01:10;3.53;;;2.40;;
19396;SDS011;9834;48.076;11.878;2022-10-16T06:03:38;1.80;;;1.57;;
19396;SDS011;9834;48.076;11.878;2022-10-16T06:06:09;2.13;;;2.03;;
19396;SDS011;9834;48.076;11.878;2022-10-16T06:08:38;1.77;;;1.67;;
19396;SDS011;9834;48.076;11.878;2022-10-16T06:11:07;2.30;;;2.10;;
19396;SDS011;9834;48.076;11.878;2022-10-16T06:13:35;1.70;;;1.60;;
19396;SDS011;9834;48.076;11.878;2022-10-16T06:16:03;2.27;;;1.97;;
19396;SDS011;9834;48.076;11.878;2022-10-16T06:18:30;2.40;;;2.10;;
19396;SDS011;9834;48.076;11.878;2022-10-16T06:20:57;2.40;;;2.03;;
19396;SDS011;9834;48.076;11.878;2022-10-16T06:23:28;1.83;;;1.73;;
19396;SDS011;9834;48.076;11.878;2022-10-16T06:26:03;3.47;;;2.37;;
19396;SDS011;9834;48.076;11.878;2022-10-16T06:28:32;2.73;;;2.53;;
19396;SDS011;9834;48.076;11.878;2022-10-16T06:30:59;2.10;;;1.83;;
19396;SDS011;9834;48.076;11.878;2022-10-16T06:33:26;2.60;;;1.93;;
19396;SDS011;9834;48.076;11.878;2022-10-16T06:35:53;3.20;;;2.33;;
19396;SDS011;9834;48.076;11.878;2022-10-16T06:38:25;2.37;;;2.17;;
19396;SDS011;9834;48.076;11.878;2022-10-16T06:40:53;2.10;;;1.70;;
19396;SDS011;9834;48.076;11.878;2022-10-16T06:43:20;2.50;;;2.10;;
19396;SDS011;9834;48.076;11.878;2022-10-16T06:45:51;6.30;;;2.73;;
19396;SDS011;9834;48.076;11.878;2022-10-16T06:48:18;3.20;;;2.43;;
19396;SDS011;9834;48.076;11.878;2022-10-16T06:50:54;4.30;;;2.53;;
19396;SDS011;9834;48.076;11.878;2022-10-16T06:53:23;7.60;;;2.37;;
19396;SDS011;9834;48.076;11.878;2022-10-16T06:55:50;2.50;;;2.30;;
19396;SDS011;9834;48.076;11.878;2022-10-16T06:58:17;3.30;;;2.63;;
19396;SDS011;9834;48.076;11.878;2022-10-16T07:00:45;2.63;;;2.00;;
19396;SDS011;9834;48.076;11.878;2022-10-16T07:03:13;3.90;;;2.67;;
19396;SDS011;9834;48.076;11.878;2022-10-16T07:05:41;3.60;;;2.53;;
19396;SDS011;9834;48.076;11.878;2022-10-16T07:08:09;3.27;;;2.27;;
19396;SDS011;9834;48.076;11.878;2022-10-16T07:10:36;1.63;;;1.53;;
19396;SDS011;9834;48.076;11.878;2022-10-16T07:13:03;3.37;;;2.20;;
19396;SDS011;9834;48.076;11.878;2022-10-16T07:15:32;2.30;;;1.83;;
19396;SDS011;9834;48.076;11.878;2022-10-16T07:17:59;3.73;;;2.30;;
19396;SDS011;9834;48.076;11.878;2022-10-16T07:20:27;5.23;;;2.30;;
19396;SDS011;9834;48.076;11.878;2022-10-16T07:22:54;2.17;;;1.70;;
19396;SDS011;9834;48.076;11.878;2022-10-16T07:25:21;4.20;;;2.50;;
19396;SDS011;9834;48.076;11.878;2022-10-16T07:27:48;2.13;;;1.93;;
19396;SDS011;9834;48.076;11.878;2022-10-16T07:30:16;1.53;;;1.43;;
19396;SDS011;9834;48.076;11.878;2022-10-16T07:32:43;4.50;;;2.17;;
19396;SDS011;9834;48.076;11.878;2022-10-16T07:35:10;3.50;;;2.10;;
19396;SDS011;9834;48.076;11.878;2022-10-16T07:37:38;1.83;;;1.73;;
19396;SDS011;9834;48.076;11.878;2022-10-16T07:40:06;1.90;;;1.63;;
19396;SDS011;9834;48.076;11.878;2022-10-16T07:42:34;2.57;;;2.00;;
19396;SDS011;9834;48.076;11.878;2022-10-16T07:45:01;4.13;;;2.20;;
19396;SDS011;9834;48.076;11.878;2022-10-16T07:47:28;2.13;;;1.97;;
19396;SDS011;9834;48.076;11.878;2022-10-16T07:49:55;2.00;;;1.80;;
19396;SDS011;9834;48.076;11.878;2022-10-16T07:52:22;1.97;;;1.80;;
19396;SDS011;9834;48.076;11.878;2022-10-16T07:54:53;1.90;;;1.63;;
19396;SDS011;9834;48.076;11.878;2022-10-16T07:57:23;1.87;;;1.77;;
19396;SDS011;9834;48.076;11.878;2022-10-16T07:59:50;2.87;;;2.67;;
19396;SDS011;9834;48.076;11.878;2022-10-16T08:02:17;2.33;;;1.63;;
19396;SDS011;9834;48.076;11.878;2022-10-16T08:04:46;2.13;;;1.53;;
19396;SDS011;9834;48.076;11.878;2022-10-16T08:07:13;2.87;;;2.20;;
19396;SDS011;9834;48.076;11.878;2022-10-16T08:09:40;5.57;;;2.10;;
19396;SDS011;9834;48.076;11.878;2022-10-16T08:12:09;3.57;;;2.30;;
19396;SDS011;9834;48.076;11.878;2022-10-16T08:14:36;1.73;;;1.63;;
19396;SDS011;9834;48.076;11.878;2022-10-16T08:17:03;1.77;;;1.60;;
19396;SDS011;9834;48.076;11.878;2022-10-16T08:19:30;8.97;;;2.43;;
19396;SDS011;9834;48.076;11.878;2022-10-16T08:21:59;2.67;;;2.10;;
19396;SDS011;9834;48.076;11.878;2022-10-16T08:24:26;1.57;;;1.47;;
19396;SDS011;9834;48.076;11.878;2022-10-16T08:26:55;2.13;;;1.97;;
19396;SDS011;9834;48.076;11.878;2022-10-16T08:29:24;2.33;;;1.90;;
19396;SDS011;9834;48.076;11.878;2022-10-16T08:31:51;1.63;;;1.50;;
19396;SDS011;9834;48.076;11.878;2022-10-16T08:34:18;3.50;;;2.10;;
19396;SDS011;9834;48.076;11.878;2022-10-16T08:36:45;1.87;;;1.77;;
19396;SDS011;9834;48.076;11.878;2022-10-16T08:39:12;1.23;;;1.10;;
19396;SDS011;9834;48.076;11.878;2022-10-16T08:47:47;2.37;;;1.70;;
19396;SDS011;9834;48.076;11.878;2022-10-16T08:50:18;11.57;;;1.50;;
19396;SDS011;9834;48.076;11.878;2022-10-16T08:52:49;2.87;;;1.40;;
19396;SDS011;9834;48.076;11.878;2022-10-16T08:55:18;1.10;;;1.00;;
19396;SDS011;9834;48.076;11.878;2022-10-16T08:57:54;2.30;;;1.43;;
19396;SDS011;9834;48.076;11.878;2022-10-16T09:00:22;1.47;;;1.37;;
19396;SDS011;9834;48.076;11.878;2022-10-16T09:02:51;1.30;;;1.20;;
19396;SDS011;9834;48.076;11.878;2022-10-16T09:05:26;1.90;;;1.63;;
19396;SDS011;9834;48.076;11.878;2022-10-16T09:08:11;5.57;;;2.57;;
19396;SDS011;9834;48.076;11.878;2022-10-16T09:10:47;7.00;;;5.40;;
19396;SDS011;9834;48.076;11.878;2022-10-16T09:13:23;7.47;;;5.00;;
19396;SDS011;9834;48.076;11.878;2022-10-16T09:15:55;9.30;;;5.73;;
19396;SDS011;9834;48.076;11.878;2022-10-16T09:18:32;7.67;;;5.40;;
19396;SDS011;9834;48.076;11.878;2022-10-16T09:21:06;12.37;;;6.87;;
19396;SDS011;9834;48.076;11.878;2022-10-16T09:23:39;9.90;;;6.13;;
19396;SDS011;9834;48.076;11.878;2022-10-16T09:26:09;10.37;;;5.00;;
19396;SDS011;9834;48.076;11.878;2022-10-16T09:28:38;6.93;;;4.47;;
19396;SDS011;9834;48.076;11.878;2022-10-16T09:31:05;6.70;;;3.03;;
19396;SDS011;9834;48.076;11.878;2022-10-16T09:33:37;3.03;;;2.75;;
19396;SDS011;9834;48.076;11.878;2022-10-16T09:36:07;3.17;;;1.93;;
19396;SDS011;9834;48.076;11.878;2022-10-16T09:38:35;6.03;;;2.70;;
19396;SDS011;9834;48.076;11.878;2022-10-16T09:41:03;1.50;;;1.40;;
19396;SDS011;9834;48.076;11.878;2022-10-16T09:43:41;1.52;;;1.42;;
19396;SDS011;9834;48.076;11.878;2022-10-16T09:46:21;2.67;;;1.42;;
19396;SDS011;9834;48.076;11.878;2022-10-16T09:48:55;5.43;;;1.80;;
19396;SDS011;9834;48.076;11.878;2022-10-16T09:51:26;2.15;;;1.40;;
19396;SDS011;9834;48.076;11.878;2022-10-16T09:53:55;0.93;;;0.93;;
19396;SDS011;9834;48.076;11.878;2022-10-16T09:56:25;1.30;;;1.20;;
19396;SDS011;9834;48.076;11.878;2022-10-16T09:58:54;1.65;;;1.55;;
19396;SDS011;9834;48.076;11.878;2022-10-16T10:01:24;1.58;;;1.30;;
19396;SDS011;9834;48.076;11.878;2022-10-16T10:04:00;1.30;;;1.20;;
19396;SDS011;9834;48.076;11.878;2022-10-16T10:09:00;1.42;;;1.17;;
19396;SDS011;9834;48.076;11.878;2022-10-16T10:11:46;1.30;;;1.20;;
19396;SDS011;9834;48.076;11.878;2022-10-16T10:14:21;1.05;;;0.98;;
19396;SDS011;9834;48.076;11.878;2022-10-16T10:17:12;1.77;;;1.65;;
19396;SDS011;9834;48.076;11.878;2022-10-16T10:19:44;1.05;;;1.00;;
19396;SDS011;9834;48.076;11.878;2022-10-16T10:25:23;1.10;;;1.00;;
19396;SDS011;9834;48.076;11.878;2022-10-16T10:28:18;1.20;;;1.17;;
19396;SDS011;9834;48.076;11.878;2022-10-16T10:30:56;2.70;;;0.98;;
19396;SDS011;9834;48.076;11.878;2022-10-16T10:33:31;1.38;;;1.27;;
19396;SDS011;9834;48.076;11.878;2022-10-16T10:36:12;1.38;;;1.15;;
19396;SDS011;9834;48.076;11.878;2022-10-16T10:38:50;1.02;;;0.73;;
19396;SDS011;9834;48.076;11.878;2022-10-16T10:44:35;1.65;;;1.55;;
19396;SDS011;9834;48.076;11.878;2022-10-16T10:47:24;2.55;;;1.33;;
19396;SDS011;9834;48.076;11.878;2022-10-16T10:50:02;1.63;;;1.35;;
19396;SDS011;9834;48.076;11.878;2022-10-16T10:52:41;1.65;;;1.55;;
19396;SDS011;9834;48.076;11.878;2022-10-16T10:55:20;2.13;;;1.42;;
19396;SDS011;9834;48.076;11.878;2022-10-16T10:57:59;1.52;;;0.93;;
19396;SDS011;9834;48.076;11.878;2022-10-16T11:00:42;2.17;;;1.23;;
19396;SDS011;9834;48.076;11.878;2022-10-16T11:03:24;1.02;;;0.95;;
19396;SDS011;9834;48.076;11.878;2022-10-16T11:06:02;1.85;;;1.50;;
19396;SDS011;9834;48.076;11.878;2022-10-16T11:08:37;3.83;;;1.27;;
19396;SDS011;9834;48.076;11.878;2022-10-16T11:11:09;0.63;;;0.63;;
19396;SDS011;9834;48.076;11.878;2022-10-16T11:13:43;1.45;;;1.17;;
19396;SDS011;9834;48.076;11.878;2022-10-16T11:16:20;0.55;;;0.55;;
19396;SDS011;9834;48.076;11.878;2022-10-16T11:18:52;1.05;;;0.95;;
19396;SDS011;9834;48.076;11.878;2022-10-16T11:21:25;0.80;;;0.80;;
19396;SDS011;9834;48.076;11.878;2022-10-16T11:23:59;1.23;;;1.10;;
19396;SDS011;9834;48.076;11.878;2022-10-16T11:26:32;5.30;;;1.10;;
19396;SDS011;9834;48.076;11.878;2022-10-16T11:29:02;1.40;;;1.30;;
19396;SDS011;9834;48.076;11.878;2022-10-16T11:31:34;0.93;;;0.93;;
19396;SDS011;9834;48.076;11.878;2022-10-16T11:34:06;1.38;;;0.70;;
19396;SDS011;9834;48.076;11.878;2022-10-16T11:36:42;1.38;;;1.13;;
19396;SDS011;9834;48.076;11.878;2022-10-16T11:39:19;0.90;;;0.90;;
19396;SDS011;9834;48.076;11.878;2022-10-16T11:41:48;1.08;;;0.98;;
19396;SDS011;9834;48.076;11.878;2022-10-16T11:44:24;1.85;;;1.10;;
19396;SDS011;9834;48.076;11.878;2022-10-16T11:47:06;12.35;;;0.95;;
19396;SDS011;9834;48.076;11.878;2022-10-16T11:49:39;1.38;;;0.85;;
19396;SDS011;9834;48.076;11.878;2022-10-16T11:52:11;1.25;;;1.10;;
19396;SDS011;9834;48.076;11.878;2022-10-16T11:54:45;1.00;;;0.60;;
19396;SDS011;9834;48.076;11.878;2022-10-16T11:57:18;1.33;;;0.98;;
19396;SDS011;9834;48.076;11.878;2022-10-16T11:59:51;1.38;;;0.90;;
19396;SDS011;9834;48.076;11.878;2022-10-16T12:05:16;0.98;;;0.80;;
19396;SDS011;9834;48.076;11.878;2022-10-16T12:07:49;0.55;;;0.52;;
19396;SDS011;9834;48.076;11.878;2022-10-16T12:10:27;1.10;;;0.50;;
19396;SDS011;9834;48.076;11.878;2022-10-16T12:13:02;0.45;;;0.45;;
19396;SDS011;9834;48.076;11.878;2022-10-16T12:15:50;0.85;;;0.50;;
19396;SDS011;9834;48.076;11.878;2022-10-16T12:18:20;0.10;;;0.10;;
19396;SDS011;9834;48.076;11.878;2022-10-16T12:20:54;0.55;;;0.50;;
19396;SDS011;9834;48.076;11.878;2022-10-16T12:23:24;0.30;;;0.30;;
19396;SDS011;9834;48.076;11.878;2022-10-16T12:25:55;0.30;;;0.30;;
19396;SDS011;9834;48.076;11.878;2022-10-16T12:28:26;0.50;;;0.50;;
19396;SDS011;9834;48.076;11.878;2022-10-16T12:30:55;0.50;;;0.50;;
19396;SDS011;9834;48.076;11.878;2022-10-16T12:33:25;0.30;;;0.30;;
19396;SDS011;9834;48.076;11.878;2022-10-16T12:35:55;0.40;;;0.30;;
19396;SDS011;9834;48.076;11.878;2022-10-16T12:38:28;0.20;;;0.20;;
19396;SDS011;9834;48.076;11.878;2022-10-16T12:41:04;0.57;;;0.40;;
19396;SDS011;9834;48.076;11.878;2022-10-16T12:43:37;0.63;;;0.45;;
19396;SDS011;9834;48.076;11.878;2022-10-16T12:46:21;0.10;;;0.10;;
19396;SDS011;9834;48.076;11.878;2022-10-16T12:49:17;0.30;;;0.30;;
19396;SDS011;9834;48.076;11.878;2022-10-16T12:51:55;0.30;;;0.30;;
19396;SDS011;9834;48.076;11.878;2022-10-16T12:54:25;0.30;;;0.30;;
19396;SDS011;9834;48.076;11.878;2022-10-16T12:57:03;0.30;;;0.30;;
19396;SDS011;9834;48.076;11.878;2022-10-16T12:59:45;0.35;;;0.35;;
19396;SDS011;9834;48.076;11.878;2022-10-16T13:02:31;0.30;;;0.30;;
19396;SDS011;9834;48.076;11.878;2022-10-16T13:05:19;0.65;;;0.50;;
19396;SDS011;9834;48.076;11.878;2022-10-16T13:07:57;0.35;;;0.35;;
19396;SDS011;9834;48.076;11.878;2022-10-16T13:10:34;6.75;;;0.43;;
19396;SDS011;9834;48.076;11.878;2022-10-16T13:16:12;0.30;;;0.30;;
19396;SDS011;9834;48.076;11.878;2022-10-16T13:18:50;0.40;;;0.38;;
19396;SDS011;9834;48.076;11.878;2022-10-16T13:21:31;0.55;;;0.40;;
19396;SDS011;9834;48.076;11.878;2022-10-16T13:24:08;0.30;;;0.30;;
19396;SDS011;9834;48.076;11.878;2022-10-16T13:26:44;0.40;;;0.40;;
19396;SDS011;9834;48.076;11.878;2022-10-16T13:29:23;0.20;;;0.20;;
19396;SDS011;9834;48.076;11.878;2022-10-16T13:31:55;0.40;;;0.40;;
19396;SDS011;9834;48.076;11.878;2022-10-16T13:34:23;0.30;;;0.30;;
19396;SDS011;9834;48.076;11.878;2022-10-16T13:36:52;0.38;;;0.38;;
19396;SDS011;9834;48.076;11.878;2022-10-16T13:39:23;0.20;;;0.20;;
19396;SDS011;9834;48.076;11.878;2022-10-16T13:42:03;0.50;;;0.50;;
19396;SDS011;9834;48.076;11.878;2022-10-16T13:44:36;0.20;;;0.20;;
19396;SDS011;9834;48.076;11.878;2022-10-16T13:47:10;0.22;;;0.22;;
19396;SDS011;9834;48.076;11.878;2022-10-16T13:49:44;0.43;;;0.43;;
19396;SDS011;9834;48.076;11.878;2022-10-16T13:52:18;0.73;;;0.50;;
19396;SDS011;9834;48.076;11.878;2022-10-16T13:54:46;0.20;;;0.20;;
19396;SDS011;9834;48.076;11.878;2022-10-16T13:57:14;0.32;;;0.32;;
19396;SDS011;9834;48.076;11.878;2022-10-16T13:59:43;0.30;;;0.30;;
19396;SDS011;9834;48.076;11.878;2022-10-16T15:09:39;0.55;;;0.55;;
19396;SDS011;9834;48.076;11.878;2022-10-16T15:12:06;0.80;;;0.50;;
19396;SDS011;9834;48.076;11.878;2022-10-16T15:14:34;0.77;;;0.73;;
19396;SDS011;9834;48.076;11.878;2022-10-16T15:17:01;0.60;;;0.60;;
19396;SDS011;9834;48.076;11.878;2022-10-16T15:19:28;0.82;;;0.60;;
19396;SDS011;9834;48.076;11.878;2022-10-16T15:21:55;0.98;;;0.75;;
19396;SDS011;9834;48.076;11.878;2022-10-16T15:24:24;1.02;;;0.93;;
19396;SDS011;9834;48.076;11.878;2022-10-16T15:26:54;0.50;;;0.50;;
19396;SDS011;9834;48.076;11.878;2022-10-16T15:29:21;0.98;;;0.88;;
19396;SDS011;9834;48.076;11.878;2022-10-16T15:31:48;0.63;;;0.63;;
19396;SDS011;9834;48.076;11.878;2022-10-16T15:34:15;0.82;;;0.77;;
19396;SDS011;9834;48.076;11.878;2022-10-16T15:36:44;0.88;;;0.77;;
19396;SDS011;9834;48.076;11.878;2022-10-16T15:39:12;0.82;;;0.80;;
19396;SDS011;9834;48.076;11.878;2022-10-16T15:41:41;2.95;;;1.27;;
19396;SDS011;9834;48.076;11.878;2022-10-16T15:44:09;1.00;;;0.95;;
19396;SDS011;9834;48.076;11.878;2022-10-16T15:46:36;2.00;;;1.15;;
19396;SDS011;9834;48.076;11.878;2022-10-16T15:49:03;0.88;;;0.88;;
19396;SDS011;9834;48.076;11.878;2022-10-16T15:51:31;6.35;;;0.80;;
19396;SDS011;9834;48.076;11.878;2022-10-16T15:53:59;0.50;;;0.50;;
19396;SDS011;9834;48.076;11.878;2022-10-16T15:56:27;1.02;;;0.75;;
19396;SDS011;9834;48.076;11.878;2022-10-16T15:58:55;2.15;;;1.33;;
19396;SDS011;9834;48.076;11.878;2022-10-16T16:01:23;0.82;;;0.82;;
19396;SDS011;9834;48.076;11.878;2022-10-16T16:03:52;5.22;;;1.20;;
19396;SDS011;9834;48.076;11.878;2022-10-16T16:06:19;2.05;;;0.68;;
19396;SDS011;9834;48.076;11.878;2022-10-16T16:08:46;0.75;;;0.75;;
19396;SDS011;9834;48.076;11.878;2022-10-16T16:11:14;0.98;;;0.93;;
19396;SDS011;9834;48.076;11.878;2022-10-16T16:13:42;0.90;;;0.90;;
19396;SDS011;9834;48.076;11.878;2022-10-16T16:16:11;1.47;;;1.10;;
19396;SDS011;9834;48.076;11.878;2022-10-16T16:18:42;2.17;;;0.75;;
19396;SDS011;9834;48.076;11.878;2022-10-16T16:21:10;3.13;;;1.10;;
19396;SDS011;9834;48.076;11.878;2022-10-16T16:23:38;5.63;;;0.93;;
19396;SDS011;9834;48.076;11.878;2022-10-16T16:26:06;2.33;;;0.57;;
19396;SDS011;9834;48.076;11.878;2022-10-16T16:28:36;0.80;;;0.80;;
19396;SDS011;9834;48.076;11.878;2022-10-16T16:31:03;1.77;;;1.03;;
19396;SDS011;9834;48.076;11.878;2022-10-16T16:33:33;0.77;;;0.77;;
19396;SDS011;9834;48.076;11.878;2022-10-16T16:36:02;0.63;;;0.63;;